Station LDLC3 - New London Ledge Light, New London Harbor, CT Image indicating link to RSS feed of recent meteorological observations for station LDLC3


Conditions at LDLC3 as of
(3:00 am EDT)
0700 GMT on 04/21/2024:
     

Click on the graph icon in the table below to see a time series plot of the last five days of that observation.

5-day plot - Wind Direction Wind Direction (WDIR): NW ( 320 deg true )
5-day plot - Wind Speed Wind Speed (WSPD): 9.9 kts
5-day plot - Wind Gust Wind Gust (GST): 13.0 kts
5-day plot - Air Temperature Air Temperature (ATMP): 43.3 °F
5-day plot - Wind Chill Wind Chill (CHILL): 37.2 °F
5-day plot - Wind Speed at 10 Meters Wind Speed at 10 meters (WSPD10M): 13.6 kts
5-day plot - Wind Speed at 20 Meters Wind Speed at 20 meters (WSPD20M): 15.5 kts
5-day plot -  Wind Speed, Wind Gust and Atmospheric Pressure Combined plot of Wind Speed, Gust, and Air Pressure
Previous observations
TIME
(EDT)
5-day plot - Wind Direction
WDIR
 
5-day plot - Wind Speed
WSPD
kts
5-day plot - Wind Gust
GST
kts
5-day plot - Wave Height
WVHT
ft
5-day plot - Dominant Wave Period
DPD
sec
5-day plot - Average Wave Period
APD
sec
5-day plot - Mean Wave Direction
MWD
 
5-day plot - Atmospheric Pressure
PRES
in
5-day plot - Pressure Tendency
PTDY
in
5-day plot - Air Temperature
ATMP
°F
5-day plot - Water Temperature
WTMP
°F
5-day plot - Dew Point
DEWP
°F
5-day plot - Salinity
SAL
psu
5-day plot - Visibility
VIS
nmi
5-day plot - Tide (above MLLW)
TIDE
ft
2024-04-21 02:45 am NW 13.0 15.9------ 43.7-----
2024-04-21 02:30 am NW 13.0 17.1------ 43.9-----
2024-04-21 02:10 am NW 14.0 18.1------ 44.2-----
2024-04-21 01:45 amNNW 14.0 18.1------ 45.0-----
2024-04-21 01:30 am NW 15.0 18.1------ 45.3-----
2024-04-21 01:10 am NW 17.1 25.1------ 45.7-----
2024-04-21 01:00 am NW 17.1 25.1------ 46.0-----
2024-04-20 07:10 pmWSW 2.9 4.1------ 50.5-----
2024-04-20 07:00 pmSSW 2.9 4.1------ 50.4-----
2024-04-20 06:45 pm S 5.1 7.0------ 50.5-----
2024-04-20 06:25 pmSSW 7.0 7.0------ 51.8-----
2024-04-20 06:15 pmSSW 7.0 8.0------ 51.1-----
2024-04-20 06:00 pm SW 7.0 8.0------ 51.6-----
2024-04-20 05:40 pmWSW 9.9 9.9------ 51.1-----
2024-04-20 05:20 pmWSW 7.0 8.9------ 50.5-----
2024-04-20 05:15 pmWSW 7.0 8.0------ 50.4-----
2024-04-20 05:00 pm SW 6.0 7.0------ 52.0-----
2024-04-20 04:40 pmWSW 8.9 9.9------ 51.3-----
2024-04-20 04:10 pmWSW 8.0 8.9------ 50.7-----
2024-04-20 04:00 pm SW 7.0 8.0------ 50.9-----
2024-04-20 03:45 pm SW 8.0 8.0------ 51.3-----
2024-04-20 03:30 pm SW 8.9 9.9------ 50.4-----
2024-04-20 03:15 pm SW 8.9 9.9------ 49.6-----
2024-04-20 02:05 pmWSW 12.0 14.0------ 48.9-----
2024-04-20 02:00 pm W 11.1 13.0------ 48.6-----
2024-04-20 01:45 pm W 9.9 11.1------ 48.2-----
2024-04-20 01:30 pm W 11.1 12.0------ 48.0-----
2024-04-20 01:15 pmWSW 8.9 9.9------ 48.4-----
2024-04-20 01:00 pmWSW 8.0 8.9------ 48.6-----
2024-04-20 12:45 pmWSW 8.9 9.9------ 48.0-----
2024-04-20 12:10 pmWSW 11.1 12.0------ 47.5-----
2024-04-20 12:00 pmWSW 11.1 12.0------ 47.7-----
2024-04-20 11:45 amWSW 11.1 12.0------ 47.3-----
2024-04-20 11:25 amWSW 8.9 9.9------ 47.3-----
2024-04-20 11:15 am SW 8.0 9.9------ 47.3-----
2024-04-20 10:15 amWSW 7.0 8.0------ 47.1-----
2024-04-20 09:55 amWSW 8.9 11.1------ 47.3-----
2024-04-20 09:45 amWSW 8.0 8.9------ 47.3-----
2024-04-20 09:10 am SW 8.0 9.9------ 47.5-----
2024-04-20 08:45 am SW 5.1 6.0------ 46.9-----
2024-04-20 08:30 amSSW 6.0 8.0------ 46.9-----
2024-04-20 08:15 amSSW 4.1 6.0------ 46.6-----
2024-04-20 07:55 amSSE 4.1 5.1------ 46.4-----
2024-04-20 07:15 amSSE 2.9 5.1------ 46.0-----
2024-04-20 07:00 amSSE 4.1 4.1------ 45.9-----
2024-04-20 06:30 amSSE 4.1 5.1------ 45.9-----
2024-04-20 06:15 amSSE 5.1 6.0------ 45.9-----
2024-04-20 06:00 amSSE 2.9 4.1------ 45.9-----
2024-04-20 05:45 am SE 4.1 5.1------ 45.9-----
2024-04-20 05:20 am SE 5.1 5.1------ 45.9-----
2024-04-20 05:10 am SE 5.1 6.0------ 45.9-----
2024-04-20 04:50 amSSE 5.1 6.0------ 46.2-----
2024-04-20 04:45 amSSE 4.1 5.1------ 46.2-----
2024-04-20 04:25 amSSW 4.1 5.1------ 46.2-----
2024-04-20 04:15 amSSW 4.1 5.1------ 46.0-----
2024-04-20 04:00 amSSW 5.1 6.0------ 46.0-----
2024-04-20 03:45 amSSW 5.1 6.0------ 45.9-----
2024-04-20 03:30 amSSW 5.1 6.0------ 45.9-----
2024-04-20 03:15 amSSW 4.1 5.1------ 45.9-----
2024-04-20 03:00 am S 2.9 5.1------ 45.9-----